createdAt,value
2023-05-11T00:00:39.709Z,6.75
2023-05-11T00:03:06.698Z,7.53
2023-05-11T00:05:33.393Z,7.28
2023-05-11T00:08:00.052Z,7.18
2023-05-11T00:10:28.280Z,6.80
2023-05-11T00:12:54.835Z,5.97
2023-05-11T00:15:21.376Z,6.25
2023-05-11T00:17:47.954Z,7.20
2023-05-11T00:23:02.642Z,5.75
2023-05-11T00:25:29.030Z,5.07
2023-05-11T00:27:55.404Z,6.32
2023-05-11T00:30:22.010Z,6.10
2023-05-11T00:32:51.419Z,5.97
2023-05-11T00:35:18.052Z,6.35
2023-05-11T00:37:44.915Z,6.28
2023-05-11T00:40:11.571Z,6.63
2023-05-11T00:42:38.071Z,6.18
2023-05-11T00:45:05.105Z,5.95
2023-05-11T00:47:31.944Z,7.40
2023-05-11T00:49:58.668Z,7.28
2023-05-11T00:52:25.167Z,8.05
2023-05-11T00:54:51.669Z,7.22
2023-05-11T00:57:18.279Z,6.75
2023-05-11T00:59:44.765Z,7.35
2023-05-11T01:02:11.426Z,6.95
2023-05-11T01:04:38.832Z,6.82
2023-05-11T01:07:20.728Z,7.53
2023-05-11T01:09:50.078Z,7.15
2023-05-11T01:12:24.572Z,7.47
2023-05-11T01:14:57.951Z,7.93
2023-05-11T01:17:34.378Z,7.43
2023-05-11T01:20:06.279Z,7.90
2023-05-11T01:23:00.006Z,7.28
2023-05-11T01:25:44.934Z,8.77
2023-05-11T01:28:35.723Z,8.30
2023-05-11T01:31:10.933Z,8.95
2023-05-11T01:33:44.438Z,7.95
2023-05-11T01:36:13.234Z,7.70
2023-05-11T01:38:44.189Z,8.38
2023-05-11T01:41:17.611Z,8.18
2023-05-11T01:43:54.278Z,8.45
2023-05-11T01:46:25.101Z,7.78
2023-05-11T01:48:54.761Z,9.27
2023-05-11T01:51:22.505Z,9.18
2023-05-11T01:53:50.100Z,9.05
2023-05-11T01:56:18.281Z,8.73
2023-05-11T01:58:46.323Z,10.23
2023-05-11T02:01:15.316Z,10.10
2023-05-11T02:03:44.167Z,9.40
2023-05-11T02:06:13.587Z,9.80
2023-05-11T02:08:41.325Z,8.95
2023-05-11T02:11:10.420Z,9.10
2023-05-11T02:13:41.891Z,9.75
2023-05-11T02:16:10.147Z,10.05
2023-05-11T02:18:40.853Z,10.15
2023-05-11T02:21:09.875Z,10.57
2023-05-11T02:23:37.492Z,11.18
2023-05-11T02:26:05.944Z,10.52
2023-05-11T02:28:32.434Z,10.52
2023-05-11T02:31:05.423Z,10.32
2023-05-11T02:36:02.693Z,9.27
2023-05-11T02:38:34.478Z,9.43
2023-05-11T02:41:07.320Z,10.18
2023-05-11T02:43:37.236Z,10.40
2023-05-11T02:46:06.969Z,9.88
2023-05-11T02:48:39.837Z,9.73
2023-05-11T02:51:10.103Z,10.38
2023-05-11T02:53:40.042Z,10.93
2023-05-11T02:56:07.815Z,10.65
2023-05-11T02:58:35.173Z,11.27
2023-05-11T03:01:02.664Z,10.02
2023-05-11T03:03:29.302Z,9.93
2023-05-11T03:05:55.892Z,10.13
2023-05-11T03:08:22.379Z,9.23
2023-05-11T03:10:48.980Z,9.25
2023-05-11T03:13:16.686Z,9.10
2023-05-11T03:15:44.009Z,7.97
2023-05-11T03:18:13.141Z,8.73
2023-05-11T03:20:43.399Z,7.43
2023-05-11T03:23:12.650Z,7.45
2023-05-11T03:25:42.966Z,6.85
2023-05-11T03:28:11.043Z,7.32
2023-05-11T03:30:38.649Z,7.35
2023-05-11T03:33:05.500Z,8.30
2023-05-11T03:35:34.893Z,8.20
2023-05-11T03:38:02.171Z,8.57
2023-05-11T03:40:33.422Z,8.85
2023-05-11T03:43:03.188Z,8.70
2023-05-11T03:45:31.696Z,8.93
2023-05-11T03:48:00.459Z,8.85
2023-05-11T03:50:28.042Z,8.85
2023-05-11T03:52:56.039Z,8.45
2023-05-11T03:55:23.021Z,8.30
2023-05-11T03:57:49.886Z,9.13
2023-05-11T04:00:16.956Z,7.68
2023-05-11T04:02:43.886Z,8.48
2023-05-11T04:05:11.682Z,8.18
2023-05-11T04:07:39.109Z,7.57
2023-05-11T04:10:06.407Z,9.00
2023-05-11T04:12:32.860Z,7.68
2023-05-11T04:14:59.342Z,8.00
2023-05-11T04:17:25.784Z,8.45
2023-05-11T04:19:52.369Z,8.15
2023-05-11T04:22:18.812Z,8.93
2023-05-11T04:24:45.461Z,8.95
2023-05-11T04:27:11.903Z,8.32
2023-05-11T04:29:38.295Z,9.88
2023-05-11T04:32:04.975Z,9.75
2023-05-11T04:34:31.451Z,10.15
2023-05-11T04:36:58.060Z,9.77
2023-05-11T04:39:24.497Z,10.25
2023-05-11T04:41:50.918Z,10.20
2023-05-11T04:44:17.437Z,10.30
2023-05-11T04:46:44.019Z,10.10
2023-05-11T04:49:10.516Z,9.57
2023-05-11T04:51:36.973Z,9.77
2023-05-11T04:54:03.534Z,9.77
2023-05-11T04:56:30.064Z,8.40
2023-05-11T04:58:56.477Z,7.88
2023-05-11T05:01:22.990Z,7.90
2023-05-11T05:03:49.894Z,8.25
2023-05-11T05:06:16.504Z,8.73
2023-05-11T05:08:43.031Z,8.32
2023-05-11T05:11:10.914Z,7.60
2023-05-11T05:13:37.532Z,7.57
2023-05-11T05:16:04.192Z,7.80
2023-05-11T05:18:30.865Z,7.72
2023-05-11T05:20:57.416Z,7.50
2023-05-11T05:23:23.917Z,7.00
2023-05-11T05:25:50.444Z,7.93
2023-05-11T05:28:16.937Z,8.23
2023-05-11T05:30:43.516Z,8.20
2023-05-11T05:33:09.923Z,8.32
2023-05-11T05:35:36.491Z,9.32
2023-05-11T05:38:03.069Z,7.53
2023-05-11T05:40:30.038Z,6.20
2023-05-11T05:42:56.594Z,6.55
2023-05-11T05:45:23.011Z,6.47
2023-05-11T05:47:49.680Z,6.72
2023-05-11T05:50:16.364Z,5.75
2023-05-11T05:52:43.041Z,5.82
2023-05-11T05:55:09.667Z,5.97
2023-05-11T05:57:36.189Z,6.07
2023-05-11T06:00:03.036Z,6.05
2023-05-11T06:02:29.548Z,5.72
2023-05-11T06:04:56.345Z,5.28
2023-05-11T06:07:22.853Z,5.15
2023-05-11T06:09:49.398Z,4.97
2023-05-11T06:12:16.123Z,4.68
2023-05-11T06:14:42.637Z,4.50
2023-05-11T06:17:09.154Z,3.42
2023-05-11T06:19:35.616Z,3.00
2023-05-11T06:22:03.143Z,2.75
2023-05-11T06:24:29.924Z,2.38
2023-05-11T06:26:56.381Z,2.13
2023-05-11T06:29:22.974Z,2.25
2023-05-11T06:31:52.688Z,1.77
2023-05-11T06:34:20.456Z,1.92
2023-05-11T06:36:48.014Z,1.90
2023-05-11T06:39:14.767Z,1.45
2023-05-11T06:41:41.153Z,1.80
2023-05-11T06:44:08.356Z,1.73
2023-05-11T06:46:34.816Z,1.65
2023-05-11T06:49:01.819Z,1.73
2023-05-11T06:51:28.221Z,1.98
2023-05-11T06:53:54.649Z,1.90
2023-05-11T06:56:21.768Z,2.05
2023-05-11T06:58:48.358Z,2.10
2023-05-11T07:01:14.822Z,2.15
2023-05-11T07:03:41.468Z,2.00
2023-05-11T07:06:08.074Z,2.28
2023-05-11T07:08:34.486Z,2.15
2023-05-11T07:11:01.070Z,1.98
2023-05-11T07:13:27.493Z,2.00
2023-05-11T07:15:56.640Z,2.13
2023-05-11T07:18:24.027Z,1.90
2023-05-11T07:20:50.512Z,1.80
2023-05-11T07:23:17.123Z,2.35
2023-05-11T07:25:43.666Z,2.10
2023-05-11T07:28:10.127Z,2.72
2023-05-11T07:30:36.620Z,2.10
2023-05-11T07:33:03.345Z,2.30
2023-05-11T07:35:29.894Z,2.30
2023-05-11T07:37:56.267Z,1.90
2023-05-11T07:40:22.850Z,2.28
2023-05-11T07:42:49.237Z,1.88
2023-05-11T07:45:15.724Z,2.22
2023-05-11T07:47:42.527Z,1.92
2023-05-11T07:50:09.225Z,2.28
2023-05-11T07:52:35.704Z,1.95
2023-05-11T07:55:02.196Z,1.98
2023-05-11T07:57:28.610Z,2.40
2023-05-11T07:59:55.016Z,2.20
2023-05-11T08:02:21.583Z,2.00
2023-05-11T08:04:48.147Z,2.70
2023-05-11T08:07:14.603Z,2.55
2023-05-11T08:09:41.078Z,2.22
2023-05-11T08:12:07.775Z,2.70
2023-05-11T08:14:34.262Z,2.50
2023-05-11T08:17:00.871Z,2.50
2023-05-11T08:19:27.355Z,2.60
2023-05-11T08:21:53.737Z,2.85
2023-05-11T08:24:20.222Z,2.15
2023-05-11T08:26:47.122Z,2.40
2023-05-11T08:29:13.660Z,2.50
2023-05-11T08:31:40.372Z,2.90
2023-05-11T08:34:18.626Z,2.67
2023-05-11T08:36:46.654Z,2.90
2023-05-11T08:39:13.145Z,2.58
2023-05-11T08:41:39.530Z,3.20
2023-05-11T08:44:06.329Z,3.03
2023-05-11T08:46:36.093Z,3.08
2023-05-11T08:49:03.023Z,3.40
2023-05-11T08:51:29.541Z,3.35
2023-05-11T08:53:57.670Z,4.25
2023-05-11T08:56:26.494Z,4.07
2023-05-11T08:58:56.175Z,3.92
2023-05-11T09:01:23.549Z,4.32
2023-05-11T09:03:50.833Z,4.88
2023-05-11T09:06:18.542Z,5.00
2023-05-11T09:08:45.981Z,4.88
2023-05-11T09:11:12.751Z,4.75
2023-05-11T09:13:39.449Z,4.97
2023-05-11T09:16:13.845Z,4.68
2023-05-11T09:18:51.522Z,5.07
2023-05-11T09:21:18.815Z,5.53
2023-05-11T09:23:45.762Z,5.15
2023-05-11T09:26:29.734Z,4.63
2023-05-11T09:29:03.861Z,4.63
2023-05-11T09:31:40.917Z,4.20
2023-05-11T09:34:22.077Z,4.72
2023-05-11T09:36:50.898Z,4.63
2023-05-11T09:39:35.208Z,4.30
2023-05-11T09:42:13.835Z,4.53
2023-05-11T09:44:41.690Z,3.78
2023-05-11T09:47:16.635Z,3.83
2023-05-11T09:49:44.448Z,3.60
2023-05-11T09:52:18.820Z,3.50
2023-05-11T09:54:51.363Z,3.78
2023-05-11T09:57:31.248Z,2.97
2023-05-11T09:59:59.389Z,3.38
2023-05-11T10:02:30.986Z,3.63
2023-05-11T10:04:59.551Z,3.00
2023-05-11T10:07:34.542Z,3.13
2023-05-11T10:10:02.624Z,3.28
2023-05-11T10:12:33.361Z,3.42
2023-05-11T10:15:07.208Z,3.30
2023-05-11T10:17:35.172Z,2.95
2023-05-11T10:20:04.001Z,3.10
2023-05-11T10:22:31.265Z,3.45
2023-05-11T10:24:58.841Z,3.13
2023-05-11T10:27:26.271Z,3.17
2023-05-11T10:29:52.823Z,3.20
2023-05-11T10:32:20.332Z,3.33
2023-05-11T10:34:48.448Z,3.15
2023-05-11T10:37:16.143Z,3.88
2023-05-11T10:39:44.395Z,3.22
2023-05-11T10:42:16.805Z,3.50
2023-05-11T10:45:05.168Z,3.70
2023-05-11T10:48:15.175Z,3.65
2023-05-11T10:51:15.582Z,3.55
2023-05-11T10:54:03.944Z,3.50
2023-05-11T10:57:07.488Z,3.67
2023-05-11T11:00:31.065Z,4.75
2023-05-11T11:02:58.922Z,4.05
2023-05-11T11:05:36.313Z,4.00
2023-05-11T11:08:07.219Z,4.20
2023-05-11T11:10:34.831Z,3.78
2023-05-11T11:13:11.665Z,3.97
2023-05-11T11:15:53.415Z,4.05
2023-05-11T11:18:23.768Z,4.28
2023-05-11T11:20:52.793Z,4.25
2023-05-11T11:23:52.084Z,4.03
2023-05-11T11:26:50.440Z,3.90
2023-05-11T11:29:17.192Z,3.70
2023-05-11T11:31:43.698Z,4.13
2023-05-11T11:34:25.173Z,4.28
2023-05-11T11:37:03.876Z,3.47
2023-05-11T11:39:42.642Z,4.03
2023-05-11T11:42:09.854Z,4.28
2023-05-11T11:44:39.873Z,4.55
2023-05-11T11:47:17.241Z,4.40
2023-05-11T11:49:46.461Z,4.93
2023-05-11T11:52:14.598Z,4.93
2023-05-11T11:54:43.656Z,4.63
2023-05-11T11:57:34.766Z,4.18
2023-05-11T12:00:10.764Z,4.35
2023-05-11T12:02:42.377Z,4.40
2023-05-11T12:05:09.130Z,4.70
2023-05-11T12:07:40.244Z,4.25
2023-05-11T12:10:07.149Z,4.75
2023-05-11T12:12:35.209Z,4.97
2023-05-11T12:15:03.526Z,4.25
2023-05-11T12:17:30.120Z,4.15
2023-05-11T12:20:12.838Z,5.35
2023-05-11T12:22:39.462Z,5.57
2023-05-11T12:25:06.924Z,5.50
2023-05-11T12:27:34.261Z,5.18
2023-05-11T12:30:01.181Z,4.50
2023-05-11T12:32:31.709Z,4.07
2023-05-11T12:35:04.101Z,4.68
2023-05-11T12:37:31.592Z,4.40
2023-05-11T12:39:59.511Z,4.18
2023-05-11T12:42:26.697Z,4.38
2023-05-11T12:44:54.479Z,4.15
2023-05-11T12:47:21.102Z,3.88
2023-05-11T12:49:47.719Z,3.92
2023-05-11T12:52:14.330Z,4.00
2023-05-11T12:54:48.009Z,4.35
2023-05-11T13:00:08.047Z,3.72
2023-05-11T13:02:34.982Z,4.13
2023-05-11T13:05:13.848Z,4.07
2023-05-11T13:07:40.558Z,4.28
2023-05-11T13:10:07.523Z,4.60
2023-05-11T13:12:34.433Z,4.85
2023-05-11T13:15:07.800Z,4.78
2023-05-11T13:17:39.053Z,4.40
2023-05-11T13:20:19.553Z,4.72
2023-05-11T13:22:47.702Z,4.95
2023-05-11T13:25:16.362Z,5.32
2023-05-11T13:27:43.301Z,4.68
2023-05-11T13:30:11.265Z,4.90
2023-05-11T13:32:39.069Z,4.95
2023-05-11T13:35:07.003Z,4.50
2023-05-11T13:37:33.432Z,4.50
2023-05-11T13:39:59.941Z,4.65
2023-05-11T13:42:26.725Z,4.97
2023-05-11T13:44:53.266Z,5.72
2023-05-11T13:47:19.754Z,5.03
2023-05-11T13:49:46.243Z,5.28
2023-05-11T13:52:12.728Z,5.05
2023-05-11T13:54:39.255Z,5.30
2023-05-11T13:57:06.544Z,5.70
2023-05-11T13:59:33.066Z,5.20
2023-05-11T14:01:59.653Z,6.05
2023-05-11T14:04:26.270Z,5.35
2023-05-11T14:06:53.456Z,5.40
2023-05-11T14:09:20.478Z,5.18
2023-05-11T14:11:47.029Z,5.70
2023-05-11T14:14:14.044Z,5.75
2023-05-11T14:16:40.825Z,5.55
2023-05-11T14:19:08.527Z,5.78
2023-05-11T14:21:35.513Z,5.72
2023-05-11T14:24:11.361Z,6.15
2023-05-11T14:26:39.020Z,6.82
2023-05-11T14:29:05.457Z,7.10
2023-05-11T14:31:32.799Z,7.40
2023-05-11T14:33:59.700Z,7.60
2023-05-11T14:36:26.253Z,7.22
2023-05-11T14:38:52.853Z,7.10
2023-05-11T14:41:19.753Z,7.25
2023-05-11T14:43:46.429Z,7.63
2023-05-11T14:46:13.400Z,7.32
2023-05-11T14:48:40.006Z,6.90
2023-05-11T14:51:06.622Z,7.47
2023-05-11T14:53:33.173Z,8.07
2023-05-11T14:56:00.654Z,7.15
2023-05-11T14:58:27.231Z,7.78
2023-05-11T15:00:53.738Z,7.85
2023-05-11T15:03:20.344Z,8.30
2023-05-11T15:05:47.059Z,8.52
2023-05-11T15:08:28.402Z,8.43
2023-05-11T15:10:56.730Z,8.00
2023-05-11T15:13:24.047Z,8.07
2023-05-11T15:15:51.449Z,8.50
2023-05-11T15:18:18.506Z,9.07
2023-05-11T15:20:45.983Z,8.52
2023-05-11T15:23:16.760Z,9.25
2023-05-11T15:25:44.533Z,8.82
2023-05-11T15:28:14.152Z,8.43
2023-05-11T15:30:42.053Z,8.85
2023-05-11T15:33:10.101Z,7.97
2023-05-11T15:35:37.287Z,8.65
2023-05-11T15:38:04.370Z,7.38
2023-05-11T15:40:30.926Z,8.32
2023-05-11T15:42:58.785Z,7.22
2023-05-11T15:45:26.181Z,7.35
2023-05-11T15:47:53.961Z,7.43
2023-05-11T15:50:20.951Z,7.93
2023-05-11T15:52:47.949Z,8.35
2023-05-11T15:55:14.461Z,9.05
2023-05-11T15:57:40.984Z,7.93
2023-05-11T16:00:10.587Z,8.65
2023-05-11T16:02:37.292Z,7.88
2023-05-11T16:05:04.098Z,8.88
2023-05-11T16:07:30.659Z,8.65
2023-05-11T16:09:57.164Z,8.48
2023-05-11T16:12:23.621Z,8.57
2023-05-11T16:14:50.253Z,9.00
2023-05-11T16:17:16.753Z,9.18
2023-05-11T16:19:43.685Z,9.32
2023-05-11T16:22:10.246Z,9.80
2023-05-11T16:24:36.853Z,8.70
2023-05-11T16:27:03.962Z,8.63
2023-05-11T16:29:30.546Z,8.80
2023-05-11T16:31:57.183Z,9.35
2023-05-11T16:34:23.877Z,9.57
2023-05-11T16:36:50.471Z,9.70
2023-05-11T16:39:16.979Z,9.60
2023-05-11T16:41:43.530Z,10.57
2023-05-11T16:44:10.179Z,9.20
2023-05-11T16:46:36.826Z,9.93
2023-05-11T16:49:03.464Z,10.43
2023-05-11T16:51:30.065Z,10.10
2023-05-11T16:53:57.266Z,10.68
2023-05-11T16:56:23.958Z,11.20
2023-05-11T16:58:50.602Z,11.27
2023-05-11T17:01:17.305Z,11.30
2023-05-11T17:03:44.096Z,10.95
2023-05-11T17:06:13.686Z,11.43
2023-05-11T17:08:40.660Z,11.68
2023-05-11T17:11:07.533Z,11.68
2023-05-11T17:13:34.283Z,12.00
2023-05-11T17:16:00.996Z,12.50
2023-05-11T17:18:27.689Z,12.85
2023-05-11T17:20:56.072Z,11.25
2023-05-11T17:23:25.152Z,11.32
2023-05-11T17:25:52.141Z,10.90
2023-05-11T17:28:18.821Z,11.15
2023-05-11T17:30:48.469Z,10.95
2023-05-11T17:33:16.026Z,11.30
2023-05-11T17:35:43.032Z,10.85
2023-05-11T17:38:09.593Z,11.00
2023-05-11T17:40:36.124Z,11.07
2023-05-11T17:43:02.760Z,11.20
2023-05-11T17:45:29.364Z,11.30
2023-05-11T17:47:56.105Z,10.95
2023-05-11T17:50:23.461Z,10.75
2023-05-11T17:52:51.232Z,10.27
2023-05-11T17:55:18.520Z,11.05
2023-05-11T17:57:45.311Z,11.25
2023-05-11T18:00:12.604Z,10.88
2023-05-11T18:02:39.289Z,11.07
2023-05-11T18:05:06.986Z,10.93
2023-05-11T18:07:33.824Z,11.25
2023-05-11T18:10:00.435Z,11.18
2023-05-11T18:12:27.083Z,11.75
2023-05-11T18:14:53.666Z,11.82
2023-05-11T18:17:20.282Z,12.63
2023-05-11T18:19:46.820Z,11.90
2023-05-11T18:22:13.416Z,13.48
2023-05-11T18:24:39.849Z,11.98
2023-05-11T18:27:06.353Z,12.25
2023-05-11T18:29:33.011Z,12.27
2023-05-11T18:31:59.745Z,12.43
2023-05-11T18:34:26.404Z,11.73
2023-05-11T18:36:52.975Z,12.95
2023-05-11T18:39:19.715Z,12.10
2023-05-11T18:41:46.241Z,12.15
2023-05-11T18:44:15.152Z,12.73
2023-05-11T18:46:42.003Z,12.23
2023-05-11T18:49:08.982Z,11.50
2023-05-11T18:51:35.486Z,12.35
2023-05-11T18:54:02.259Z,12.43
2023-05-11T18:56:29.805Z,12.65
2023-05-11T18:58:56.344Z,11.90
2023-05-11T19:01:26.087Z,11.75
2023-05-11T19:03:56.899Z,11.05
2023-05-11T19:06:23.508Z,11.18
2023-05-11T19:08:50.975Z,10.82
2023-05-11T19:11:17.750Z,10.75
2023-05-11T19:13:44.356Z,10.93
2023-05-11T19:16:10.854Z,10.55
2023-05-11T19:18:39.944Z,10.30
2023-05-11T19:21:06.900Z,10.05
2023-05-11T19:23:33.688Z,10.55
2023-05-11T19:26:00.563Z,10.52
2023-05-11T19:28:27.177Z,9.82
2023-05-11T19:31:04.760Z,10.65
2023-05-11T19:33:31.755Z,10.75
2023-05-11T19:35:58.431Z,10.40
2023-05-11T19:38:25.003Z,10.57
2023-05-11T19:40:52.243Z,10.90
2023-05-11T19:43:19.203Z,10.88
2023-05-11T19:45:45.988Z,11.10
2023-05-11T19:48:13.702Z,11.48
2023-05-11T19:50:41.109Z,11.82
2023-05-11T19:53:07.865Z,10.35
2023-05-11T19:55:34.477Z,11.02
2023-05-11T19:58:01.257Z,11.80
2023-05-11T20:00:27.848Z,12.82
2023-05-11T20:02:55.226Z,11.73
2023-05-11T20:05:21.905Z,11.80
2023-05-11T20:07:48.449Z,11.80
2023-05-11T20:10:14.919Z,12.02
2023-05-11T20:12:41.474Z,11.80
2023-05-11T20:15:08.692Z,13.10
2023-05-11T20:17:36.162Z,12.88
2023-05-11T20:20:03.552Z,11.73
2023-05-11T20:22:31.360Z,11.43
2023-05-11T20:24:57.908Z,13.90
2023-05-11T20:27:24.489Z,13.07
2023-05-11T20:29:51.052Z,13.07
2023-05-11T20:32:18.368Z,12.88
2023-05-11T20:34:44.879Z,13.25
2023-05-11T20:37:11.535Z,13.80
2023-05-11T20:39:39.120Z,13.90
2023-05-11T20:42:05.808Z,13.82
2023-05-11T20:44:32.367Z,14.15
2023-05-11T20:46:58.875Z,13.98
2023-05-11T20:49:37.532Z,14.23
2023-05-11T20:52:05.914Z,13.73
2023-05-11T20:54:34.738Z,13.98
2023-05-11T20:57:04.763Z,13.30
2023-05-11T21:02:02.216Z,14.18
2023-05-11T21:04:31.090Z,13.98
2023-05-11T21:06:57.615Z,13.88
2023-05-11T21:09:25.202Z,15.40
2023-05-11T21:11:51.591Z,15.45
2023-05-11T21:14:18.051Z,15.68
2023-05-11T21:16:44.521Z,16.48
2023-05-11T21:19:11.941Z,17.85
2023-05-11T21:21:38.481Z,17.58
2023-05-11T21:24:06.164Z,18.95
2023-05-11T21:26:32.843Z,19.65
2023-05-11T21:28:59.403Z,20.52
2023-05-11T21:31:26.141Z,21.05
2023-05-11T21:33:52.701Z,20.77
2023-05-11T21:36:19.645Z,21.90
2023-05-11T21:38:46.103Z,22.08
2023-05-11T21:41:12.715Z,21.85
2023-05-11T21:43:39.257Z,22.15
2023-05-11T21:46:06.197Z,21.65
2023-05-11T21:48:32.738Z,23.30
2023-05-11T21:50:59.186Z,21.38
2023-05-11T21:53:25.872Z,23.08
2023-05-11T21:55:52.314Z,24.33
2023-05-11T21:58:19.090Z,24.08
2023-05-11T22:00:46.362Z,23.92
2023-05-11T22:03:13.325Z,22.70
2023-05-11T22:05:39.992Z,23.70
2023-05-11T22:08:14.832Z,22.92
2023-05-11T22:10:43.146Z,23.50
2023-05-11T22:13:09.794Z,22.60
2023-05-11T22:15:36.452Z,22.90
2023-05-11T22:18:03.568Z,23.67
2023-05-11T22:20:31.711Z,22.42
2023-05-11T22:22:58.368Z,22.83
2023-05-11T22:25:24.823Z,23.40
2023-05-11T22:27:51.308Z,23.00
2023-05-11T22:30:18.253Z,24.42
2023-05-11T22:32:44.992Z,23.85
2023-05-11T22:35:11.744Z,22.75
2023-05-11T22:37:38.293Z,23.52
2023-05-11T22:40:05.340Z,24.42
2023-05-11T22:42:32.799Z,23.83
2023-05-11T22:44:59.380Z,23.15
2023-05-11T22:47:26.127Z,24.98
2023-05-11T22:49:52.739Z,24.08
2023-05-11T22:52:19.335Z,23.92
2023-05-11T22:54:46.360Z,23.65
2023-05-11T22:57:16.070Z,23.98
2023-05-11T22:59:42.589Z,23.77
2023-05-11T23:02:09.032Z,23.48
2023-05-11T23:04:35.572Z,23.50
2023-05-11T23:07:02.207Z,24.10
2023-05-11T23:09:29.004Z,21.73
2023-05-11T23:11:55.622Z,23.38
2023-05-11T23:14:22.616Z,24.85
2023-05-11T23:16:49.469Z,24.95
2023-05-11T23:19:16.118Z,25.58
2023-05-11T23:21:42.789Z,26.50
2023-05-11T23:24:09.326Z,25.73
2023-05-11T23:26:36.976Z,24.90
2023-05-11T23:29:03.779Z,26.15
2023-05-11T23:31:32.189Z,26.35
2023-05-11T23:33:59.376Z,27.10
2023-05-11T23:36:26.350Z,24.90
2023-05-11T23:38:53.641Z,26.48
2023-05-11T23:41:20.221Z,27.13
2023-05-11T23:43:46.781Z,28.60
2023-05-11T23:46:13.347Z,27.65
2023-05-11T23:48:40.438Z,27.13
2023-05-11T23:51:07.074Z,28.90
2023-05-11T23:53:33.818Z,28.15
2023-05-11T23:56:00.354Z,27.35
2023-05-11T23:58:26.873Z,28.42
